RJTYRJSF

Guest
Details From RJTY - YOKOTA AB
To RJSF - Fukushima
Flight Number -
Tags generated
Created
Modified
Stats Distance 103 nm / 191 km
Max Altitude 11,100 ft / 3,383 m
Waypoints 3
Social Downloads 2
Likes 0
Share VATSIM

Download

Looking for another format? Having issues loading an existing format? Contact us
Advertisement - Login to hide

Notes

Basic altitude profile: - Ascent Rate: 2500ft/min - Ascent Speed: 250kts - Cruise Altitude: 35000ft - Cruise Speed: 420kts - Descent Rate: 1500ft/min - Descent Speed: 250kts Options: - Use NATs: yes - Use PACOTS: yes - Use low airways: yes - Use high airways: no

Route

RJTY JD RJSF

ID Type Via Altitude (ft/m) Position (lat/lon) Dist (leg/tot) Name
O RJTY APT - 0 / 0 35.74849 / 139.34848 - / 0 nm YOKOTA AB
JD NDB - 11,100 / 3,383 36.48982 / 139.86339 51 / 51 nm NIKKO NDB
O RJSF APT - 0 / 0 37.22743 / 140.42797 51 / 102 nm Fukushima

Altitude Profile

Advertisement - Login to hide

RJTY

Details ICAO RJTY (OKO)
Name YOKOTA AB
Region Japan
Timezone Asia/Tokyo (UTC+9.0)
Stats Elevation 459 ft / 140 m (AMSL)
Location 35.748500° 139.348000°
Runways 1
Magnetic Variation 7.615° W

METAR

RJTY 131656Z AUTO 00000KT 10SM CLR 00/M02 A3007 RMK AO2 SLP193 T00001021 FZRANO $

Decode

TAF

TAF RJTY 131300Z 1313/1419 VRB06KT 9999 FEW030 QNH3005INS BECMG 1323/1401 35010G15KT 9999 BKN040 QNH3009INS TEMPO 1404/1408 35015G25KT BKN060 BECMG 1408/1409 36009KT 9999 FEW050 QNH3017INS TX10/1408Z TN01/1321Z LAST NO AMDS AFT 1313 NEXT 1321

Decode

Departure Runways

ID Width Length Bearing (true/mag) Surface Threshold Overrun Markings Lighting
18 200 ft / 61 m 11,028 ft / 3,361 m 170.34° / 177.95° CONCRETE 0 ft / 0 m 1,001 ft / 305 m PREC-APP CENTERLINE EDGE THRESHOLD ALSF-I
36 200 ft / 61 m 11,028 ft / 3,361 m 350.34° / 357.96° CONCRETE 0 ft / 0 m 1,001 ft / 305 m PREC-APP CENTERLINE EDGE THRESHOLD ALSF-I TDZ

RJSF

Details ICAO RJSF (FKS)
Name Fukushima Airport
Region Japan
Timezone Asia/Tokyo (UTC+9.0)
Stats Elevation 1,220 ft / 372 m (AMSL)
Location 37.227400° 140.428000°
Runways 1
Magnetic Variation 7.924° W

METAR

Not found

TAF

TAF RJSF 131109Z 1312/1418 16005KT 9999 FEW020 BKN040 BECMG 1319/1321 32015KT TEMPO 1319/1321 3000 -SHSN TEMPO 1321/1406 32015G25KT

Decode

Destination Runways

ID Width Length Bearing (true/mag) Surface Threshold Overrun Markings Lighting
01 195 ft / 59 m 8,217 ft / 2,505 m 2.21° / 10.14° ASPHALT 0 ft / 0 m 197 ft / 60 m PREC-APP CENTERLINE EDGE THRESHOLD ALSF-I
19 195 ft / 59 m 8,217 ft / 2,505 m 182.21° / 190.14° ASPHALT 0 ft / 0 m 197 ft / 60 m PREC-APP CENTERLINE EDGE THRESHOLD ALSF-I

Approach Navaids

Runway Type Ident Frequency Range Bearing (true/mag) Slope Elevation
01 GS IFK 110.50 MHz 10 nm / 19 km 2.38° / 10.30 ° 3.00° 1,220 ft / 372 m (AMSL)
01 MM MM - - 2.19° / 10.11 ° - 1,220 ft / 372 m (AMSL)
01 DME IFK 110.50 MHz 18 nm / 33 km - - 1,223 ft / 373 m (AMSL)
01 LOC-ILS IFK 110.50 MHz 18 nm / 33 km 2.19° / 10.11 ° - 1,220 ft / 372 m (AMSL)